createdAt,value
2023-04-05T00:00:58.775Z,101163.00
2023-04-05T00:03:27.024Z,101160.44
2023-04-05T00:05:55.552Z,101159.59
2023-04-05T00:08:26.765Z,101157.03
2023-04-05T00:10:54.584Z,101161.31
2023-04-05T00:13:22.854Z,101157.03
2023-04-05T00:15:51.213Z,101159.59
2023-04-05T00:18:23.741Z,101160.44
2023-04-05T00:20:52.222Z,101157.03
2023-04-05T00:23:21.253Z,101151.91
2023-04-05T00:25:49.119Z,101151.03
2023-04-05T00:28:17.306Z,101151.00
2023-04-05T00:30:45.283Z,101156.16
2023-04-05T00:33:13.580Z,101147.53
2023-04-05T00:35:43.310Z,101146.72
2023-04-05T00:38:11.294Z,101146.69
2023-04-05T00:40:39.785Z,101147.56
2023-04-05T00:43:08.276Z,101143.31
2023-04-05T00:45:36.805Z,101141.56
2023-04-05T00:48:05.866Z,101143.28
2023-04-05T00:50:34.366Z,101139.00
2023-04-05T00:53:03.593Z,101139.00
2023-04-05T00:55:34.053Z,101131.28
2023-04-05T00:58:02.130Z,101133.00
2023-04-05T01:00:30.314Z,101127.00
2023-04-05T01:03:01.736Z,101134.69
2023-04-05T01:05:37.671Z,101126.94
2023-04-05T01:08:14.305Z,101126.97
2023-04-05T01:10:47.665Z,101122.69
2023-04-05T01:13:17.570Z,101121.84
2023-04-05T01:15:46.269Z,101129.47
2023-04-05T01:18:14.427Z,101128.63
2023-04-05T01:20:52.846Z,101132.00
2023-04-05T01:23:37.543Z,101137.94
2023-04-05T01:26:29.945Z,101126.81
2023-04-05T01:29:20.445Z,101124.25
2023-04-05T01:31:57.435Z,101127.66
2023-04-05T01:34:31.878Z,101121.69
2023-04-05T01:37:06.169Z,101120.81
2023-04-05T01:39:37.077Z,101124.22
2023-04-05T01:42:06.220Z,101123.31
2023-04-05T01:44:34.235Z,101126.75
2023-04-05T01:47:03.263Z,101125.94
2023-04-05T01:49:30.968Z,101119.13
2023-04-05T01:51:58.723Z,101118.22
2023-04-05T01:54:28.419Z,101119.94
2023-04-05T01:56:56.672Z,101119.03
2023-04-05T01:59:24.537Z,101115.59
2023-04-05T02:01:53.246Z,101111.22
2023-04-05T02:04:22.341Z,101115.34
2023-04-05T02:06:50.486Z,101110.22
2023-04-05T02:09:18.442Z,101110.28
2023-04-05T02:11:46.979Z,101109.50
2023-04-05T02:14:15.009Z,101110.38
2023-04-05T02:16:43.314Z,101099.22
2023-04-05T02:19:13.218Z,101106.91
2023-04-05T02:21:42.595Z,101107.75
2023-04-05T02:24:10.432Z,101112.06
2023-04-05T02:26:39.539Z,101104.34
2023-04-05T02:29:07.251Z,101106.84
2023-04-05T02:31:35.348Z,101111.13
2023-04-05T02:34:03.811Z,101109.38
2023-04-05T02:36:34.312Z,101105.97
2023-04-05T02:39:05.792Z,101108.56
2023-04-05T02:41:33.571Z,101114.47
2023-04-05T02:44:02.182Z,101110.09
2023-04-05T02:46:31.835Z,101110.06
2023-04-05T02:49:00.607Z,101111.78
2023-04-05T02:51:30.378Z,101104.97
2023-04-05T02:53:59.070Z,101105.06
2023-04-05T02:56:29.161Z,101098.22
2023-04-05T02:58:58.751Z,101106.81
2023-04-05T03:01:28.771Z,101103.38
2023-04-05T03:03:58.542Z,101106.69
2023-04-05T03:06:26.481Z,101106.69
2023-04-05T03:08:55.940Z,101109.25
2023-04-05T03:11:26.161Z,101104.09
2023-04-05T03:13:59.310Z,101100.66
2023-04-05T03:16:35.386Z,101098.09
2023-04-05T03:19:10.976Z,101097.25
2023-04-05T03:21:43.050Z,101091.34
2023-04-05T03:24:24.042Z,101091.25
2023-04-05T03:26:53.438Z,101086.09
2023-04-05T03:29:26.153Z,101089.50
2023-04-05T03:31:55.801Z,101093.75
2023-04-05T03:34:29.077Z,101087.78
2023-04-05T03:37:03.218Z,101089.44
2023-04-05T03:39:40.505Z,101093.69
2023-04-05T03:42:08.523Z,101087.72
2023-04-05T03:44:37.787Z,101095.47
2023-04-05T03:47:05.706Z,101098.00
2023-04-05T03:49:33.530Z,101090.34
2023-04-05T03:52:01.879Z,101091.16
2023-04-05T03:54:29.804Z,101089.41
2023-04-05T03:57:01.091Z,101083.41
2023-04-05T03:59:29.789Z,101089.41
2023-04-05T04:02:01.068Z,101084.22
2023-04-05T04:04:29.676Z,101081.66
2023-04-05T04:06:58.240Z,101074.81
2023-04-05T04:09:29.732Z,101078.94
2023-04-05T04:11:59.586Z,101075.56
2023-04-05T04:14:27.683Z,101079.88
2023-04-05T04:17:27.661Z,101079.81
2023-04-05T04:20:19.474Z,101075.56
2023-04-05T04:22:50.093Z,101073.78
2023-04-05T04:25:55.784Z,101078.09
2023-04-05T04:28:44.671Z,101072.13
2023-04-05T04:31:25.310Z,101068.75
2023-04-05T04:34:06.265Z,101072.06
2023-04-05T04:37:01.264Z,101080.56
2023-04-05T04:39:37.762Z,101086.47
2023-04-05T04:42:33.698Z,101078.78
2023-04-05T04:45:16.112Z,101083.16
2023-04-05T04:47:49.097Z,101083.81
2023-04-05T04:50:22.133Z,101082.13
2023-04-05T04:52:49.870Z,101090.66
2023-04-05T04:55:17.684Z,101086.28
2023-04-05T04:57:47.928Z,101090.78
2023-04-05T05:00:16.772Z,101095.75
2023-04-05T05:02:46.213Z,101088.91
2023-04-05T05:05:16.866Z,101093.41
2023-04-05T05:07:46.469Z,101095.78
2023-04-05T05:10:16.282Z,101092.31
2023-04-05T05:12:44.592Z,101094.31
2023-04-05T05:15:14.531Z,101095.84
2023-04-05T05:17:44.606Z,101091.63
2023-04-05T05:20:13.354Z,101101.81
2023-04-05T05:22:47.684Z,101091.81
2023-04-05T05:25:15.651Z,101095.03
2023-04-05T05:27:43.890Z,101101.81
2023-04-05T05:30:13.573Z,101103.53
2023-04-05T05:32:42.975Z,101101.88
2023-04-05T05:35:10.895Z,101101.16
2023-04-05T05:37:39.121Z,101103.78
2023-04-05T05:40:13.495Z,101103.75
2023-04-05T05:42:41.871Z,101101.25
2023-04-05T05:45:11.087Z,101101.28
2023-04-05T05:47:39.101Z,101103.06
2023-04-05T05:50:09.985Z,101108.94
2023-04-05T05:52:37.864Z,101103.78
2023-04-05T05:55:07.278Z,101106.47
2023-04-05T05:57:36.720Z,101109.06
2023-04-05T06:00:09.565Z,101112.41
2023-04-05T06:02:40.627Z,101103.91
2023-04-05T06:05:09.647Z,101100.56
2023-04-05T06:07:38.331Z,101104.03
2023-04-05T06:10:06.981Z,101104.09
2023-04-05T06:12:38.582Z,101105.78
2023-04-05T06:15:09.758Z,101104.09
2023-04-05T06:17:42.332Z,101105.00
2023-04-05T06:20:12.343Z,101102.47
2023-04-05T06:22:41.580Z,101107.69
2023-04-05T06:25:12.214Z,101107.69
2023-04-05T06:27:41.456Z,101103.50
2023-04-05T06:30:10.478Z,101107.78
2023-04-05T06:32:38.571Z,101103.59
2023-04-05T06:35:07.590Z,101107.94
2023-04-05T06:37:35.710Z,101107.97
2023-04-05T06:40:03.551Z,101107.94
2023-04-05T06:42:31.272Z,101092.69
2023-04-05T06:45:06.801Z,101090.13
2023-04-05T06:47:35.712Z,101091.88
2023-04-05T06:50:03.743Z,101092.72
2023-04-05T06:52:31.780Z,101093.63
2023-04-05T06:54:59.574Z,101094.47
2023-04-05T06:57:27.543Z,101096.19
2023-04-05T06:59:56.238Z,101095.34
2023-04-05T07:02:25.672Z,101093.59
2023-04-05T07:04:54.001Z,101090.09
2023-04-05T07:07:22.219Z,101094.25
2023-04-05T07:09:50.059Z,101091.59
2023-04-05T07:12:17.798Z,101088.94
2023-04-05T07:14:45.617Z,101089.75
2023-04-05T07:17:13.800Z,101088.84
2023-04-05T07:19:42.871Z,101083.63
2023-04-05T07:22:11.018Z,101082.41
2023-04-05T07:24:38.702Z,101084.97
2023-04-05T07:27:06.455Z,101077.69
2023-04-05T07:29:38.180Z,101066.88
2023-04-05T07:32:06.388Z,101054.75
2023-04-05T07:34:34.389Z,101061.03
2023-04-05T07:37:06.323Z,101054.97
2023-04-05T07:39:34.284Z,101056.88
2023-04-05T07:42:02.294Z,101053.09
2023-04-05T07:44:29.972Z,101061.03
2023-04-05T07:46:57.740Z,101060.84
2023-04-05T07:49:26.574Z,101058.56
2023-04-05T07:51:56.426Z,101055.09
2023-04-05T07:54:25.544Z,101050.63
2023-04-05T07:56:55.441Z,101042.06
2023-04-05T07:59:23.357Z,101031.34
2023-04-05T08:01:51.579Z,101038.47
2023-04-05T08:04:19.876Z,101037.78
2023-04-05T08:06:48.159Z,101033.66
2023-04-05T08:09:15.886Z,101034.78
2023-04-05T08:11:44.952Z,101044.56
2023-04-05T08:14:12.677Z,101037.31
2023-04-05T08:16:40.614Z,101036.63
2023-04-05T08:19:08.376Z,101031.81
2023-04-05T08:21:36.018Z,101038.91
2023-04-05T08:24:03.908Z,101033.09
2023-04-05T08:26:31.806Z,101039.00
2023-04-05T08:29:00.783Z,101036.50
2023-04-05T08:31:28.606Z,101034.50
2023-04-05T08:33:56.469Z,101024.22
2023-04-05T08:36:24.073Z,101018.06
2023-04-05T08:38:51.773Z,101029.81
2023-04-05T08:41:21.621Z,101030.25
2023-04-05T08:43:58.036Z,101037.53
2023-04-05T08:46:28.077Z,101034.38
2023-04-05T08:48:56.221Z,101031.97
2023-04-05T08:51:24.817Z,101034.50
2023-04-05T08:53:52.837Z,101032.50
2023-04-05T08:56:26.404Z,101025.59
2023-04-05T08:58:58.919Z,101032.47
2023-04-05T09:01:31.296Z,101020.91
2023-04-05T09:04:01.933Z,101014.13
2023-04-05T09:06:29.714Z,101029.91
2023-04-05T09:08:58.844Z,101018.75
2023-04-05T09:11:27.143Z,101023.13
2023-04-05T09:13:55.048Z,101025.31
2023-04-05T09:16:24.578Z,101020.97
2023-04-05T09:18:53.716Z,101015.97
2023-04-05T09:21:23.609Z,101000.91
2023-04-05T09:23:56.088Z,100998.81
2023-04-05T09:26:25.741Z,101005.53
2023-04-05T09:28:58.232Z,100992.56
2023-04-05T09:31:36.045Z,100999.06
2023-04-05T09:34:10.893Z,101007.63
2023-04-05T09:36:44.763Z,100994.38
2023-04-05T09:39:12.889Z,100998.47
2023-04-05T09:41:41.000Z,100995.88
2023-04-05T09:44:08.677Z,100988.41
2023-04-05T09:46:38.551Z,100983.66
2023-04-05T09:49:09.338Z,100983.88
2023-04-05T09:51:39.934Z,100980.53
2023-04-05T09:54:12.288Z,100978.56
2023-04-05T09:56:41.903Z,100979.84
2023-04-05T09:59:11.438Z,100986.56
2023-04-05T10:01:44.387Z,100974.47
2023-04-05T10:04:12.624Z,100976.38
2023-04-05T10:06:43.662Z,100970.47
2023-04-05T10:09:17.305Z,100975.06
2023-04-05T10:11:46.228Z,100970.22
2023-04-05T10:14:13.973Z,100966.50
2023-04-05T10:16:48.526Z,100972.81
2023-04-05T10:19:26.319Z,100959.63
2023-04-05T10:21:57.093Z,100958.44
2023-04-05T10:24:36.681Z,100965.66
2023-04-05T10:27:08.806Z,100949.13
2023-04-05T10:29:51.676Z,100954.22
2023-04-05T10:32:28.403Z,100951.69
2023-04-05T10:35:01.924Z,100947.16
2023-04-05T10:37:41.908Z,100954.31
2023-04-05T10:40:11.239Z,100952.59
2023-04-05T10:42:43.824Z,100953.84
2023-04-05T10:45:15.578Z,100946.03
2023-04-05T10:47:48.395Z,100942.78
2023-04-05T10:50:22.566Z,100941.13
2023-04-05T10:52:53.055Z,100937.22
2023-04-05T10:55:22.417Z,100928.16
2023-04-05T10:57:51.539Z,100931.09
2023-04-05T11:00:20.258Z,100926.47
2023-04-05T11:02:49.820Z,100925.19
2023-04-05T11:05:31.876Z,100920.22
2023-04-05T11:08:05.761Z,100914.72
2023-04-05T11:10:37.322Z,100916.50
2023-04-05T11:13:10.599Z,100914.50
2023-04-05T11:15:39.152Z,100903.16
2023-04-05T11:18:11.550Z,100907.47
2023-04-05T11:20:44.468Z,100902.53
2023-04-05T11:23:15.835Z,100907.91
2023-04-05T11:25:50.398Z,100901.66
2023-04-05T11:28:26.608Z,100895.94
2023-04-05T11:30:57.163Z,100887.09
2023-04-05T11:33:57.254Z,100880.47
2023-04-05T11:36:34.980Z,100877.22
2023-04-05T11:39:29.449Z,100872.25
2023-04-05T11:42:04.274Z,100862.72
2023-04-05T11:44:42.826Z,100874.19
2023-04-05T11:47:11.935Z,100869.22
2023-04-05T11:49:42.693Z,100866.97
2023-04-05T11:52:15.734Z,100856.03
2023-04-05T11:54:49.794Z,100857.53
2023-04-05T11:57:22.368Z,100847.91
2023-04-05T11:59:51.657Z,100850.81
2023-04-05T12:02:19.633Z,100847.81
2023-04-05T12:04:55.086Z,100843.88
2023-04-05T12:07:26.560Z,100838.59
2023-04-05T12:10:08.355Z,100828.59
2023-04-05T12:12:38.969Z,100817.94
2023-04-05T12:15:09.957Z,100816.22
2023-04-05T12:17:49.744Z,100824.25
2023-04-05T12:20:20.465Z,100808.91
2023-04-05T12:22:50.130Z,100805.72
2023-04-05T12:25:21.241Z,100810.88
2023-04-05T12:27:49.564Z,100809.25
2023-04-05T12:30:19.227Z,100809.94
2023-04-05T12:32:49.513Z,100802.34
2023-04-05T12:35:19.187Z,100803.59
2023-04-05T12:37:47.830Z,100805.59
2023-04-05T12:40:21.465Z,100793.31
2023-04-05T12:42:50.832Z,100792.53
2023-04-05T12:45:19.525Z,100787.50
2023-04-05T12:47:53.001Z,100785.91
2023-04-05T12:50:28.609Z,100774.59
2023-04-05T12:52:58.876Z,100784.19
2023-04-05T12:55:28.548Z,100778.47
2023-04-05T12:58:00.514Z,100771.59
2023-04-05T13:00:31.061Z,100772.50
2023-04-05T13:03:00.598Z,100766.59
2023-04-05T13:05:31.275Z,100766.97
2023-04-05T13:07:59.873Z,100774.41
2023-04-05T13:10:28.097Z,100769.47
2023-04-05T13:12:57.870Z,100763.91
2023-04-05T13:15:25.893Z,100766.44
2023-04-05T13:17:55.093Z,100752.88
2023-04-05T13:20:23.839Z,100759.63
2023-04-05T13:22:51.968Z,100757.47
2023-04-05T13:25:20.165Z,100746.50
2023-04-05T13:27:48.575Z,100751.81
2023-04-05T13:30:18.974Z,100753.88
2023-04-05T13:32:47.052Z,100748.03
2023-04-05T13:35:15.241Z,100748.75
2023-04-05T13:37:44.058Z,100748.66
2023-04-05T13:40:13.039Z,100746.75
2023-04-05T13:42:41.396Z,100736.50
2023-04-05T13:45:10.522Z,100729.38
2023-04-05T13:47:40.181Z,100726.34
2023-04-05T13:50:09.413Z,100730.03
2023-04-05T13:52:37.483Z,100721.81
2023-04-05T13:55:10.126Z,100725.16
2023-04-05T13:57:38.142Z,100716.72
2023-04-05T14:00:08.734Z,100724.56
2023-04-05T14:02:41.780Z,100713.19
2023-04-05T14:05:10.612Z,100716.34
2023-04-05T14:07:39.198Z,100717.66
2023-04-05T14:10:08.052Z,100709.25
2023-04-05T14:12:36.236Z,100716.34
2023-04-05T14:15:05.099Z,100706.31
2023-04-05T14:17:33.521Z,100713.69
2023-04-05T14:20:03.790Z,100702.16
2023-04-05T14:22:33.032Z,100719.19
2023-04-05T14:25:01.351Z,100698.38
2023-04-05T14:27:29.551Z,100702.34
2023-04-05T14:29:57.993Z,100700.19
2023-04-05T14:32:26.975Z,100703.47
2023-04-05T14:34:55.018Z,100710.69
2023-04-05T14:37:25.186Z,100706.88
2023-04-05T14:39:53.530Z,100707.84
2023-04-05T14:42:22.957Z,100711.06
2023-04-05T14:44:51.401Z,100703.47
2023-04-05T14:47:19.573Z,100710.41
2023-04-05T14:49:47.913Z,100707.50
2023-04-05T14:52:16.370Z,100712.47
2023-04-05T14:54:46.698Z,100706.59
2023-04-05T14:57:15.329Z,100700.66
2023-04-05T14:59:44.748Z,100692.97
2023-04-05T15:02:13.156Z,100688.38
2023-04-05T15:04:42.689Z,100693.09
2023-04-05T15:07:11.259Z,100690.91
2023-04-05T15:09:39.718Z,100690.13
2023-04-05T15:12:09.537Z,100679.06
2023-04-05T15:14:37.678Z,100686.41
2023-04-05T15:17:05.961Z,100681.72
2023-04-05T15:19:35.842Z,100680.41
2023-04-05T15:22:03.967Z,100678.78
2023-04-05T15:24:32.248Z,100683.81
2023-04-05T15:27:02.753Z,100678.22
2023-04-05T15:29:33.088Z,100673.78
2023-04-05T15:32:02.080Z,100679.59
2023-04-05T15:34:31.801Z,100688.44
2023-04-05T15:36:59.575Z,100677.19
2023-04-05T15:39:27.995Z,100675.88
2023-04-05T15:41:57.413Z,100677.94
2023-04-05T15:44:26.857Z,100669.81
2023-04-05T15:46:56.011Z,100675.25
2023-04-05T15:49:23.962Z,100677.47
2023-04-05T15:51:52.144Z,100688.53
2023-04-05T15:54:20.945Z,100678.06
2023-04-05T15:56:49.457Z,100679.47
2023-04-05T15:59:19.363Z,100688.09
2023-04-05T16:01:47.272Z,100679.22
2023-04-05T16:04:16.736Z,100687.53
2023-04-05T16:06:44.641Z,100695.75
2023-04-05T16:09:12.538Z,100690.09
2023-04-05T16:11:40.797Z,100683.63
2023-04-05T16:14:10.340Z,100685.31
2023-04-05T16:16:50.117Z,100679.63
2023-04-05T16:19:23.417Z,100678.97
2023-04-05T16:21:52.948Z,100685.16
2023-04-05T16:24:21.263Z,100674.50
2023-04-05T16:26:49.333Z,100677.78
2023-04-05T16:29:17.270Z,100680.22
2023-04-05T16:31:47.435Z,100686.72
2023-04-05T16:34:16.300Z,100685.34
2023-04-05T16:36:45.548Z,100677.84
2023-04-05T16:39:13.308Z,100676.09
2023-04-05T16:41:41.306Z,100677.09
2023-04-05T16:44:09.363Z,100679.78
2023-04-05T16:46:37.627Z,100676.34
2023-04-05T16:49:05.888Z,100673.75
2023-04-05T16:51:35.938Z,100652.88
2023-04-05T16:54:05.605Z,100664.13
2023-04-05T16:56:33.757Z,100680.66
2023-04-05T16:59:02.629Z,100671.53
2023-04-05T17:01:31.819Z,100674.75
2023-04-05T17:04:00.057Z,100683.50
2023-04-05T17:06:28.946Z,100675.03
2023-04-05T17:08:56.967Z,100674.19
2023-04-05T17:11:28.325Z,100684.66
2023-04-05T17:13:57.719Z,100682.94
2023-04-05T17:16:25.762Z,100677.00
2023-04-05T17:18:53.789Z,100680.91
2023-04-05T17:21:22.754Z,100677.63
2023-04-05T17:23:50.705Z,100679.88
2023-04-05T17:26:19.239Z,100685.00
2023-04-05T17:28:48.886Z,100680.03
2023-04-05T17:31:17.069Z,100686.16
2023-04-05T17:33:47.722Z,100682.16
2023-04-05T17:36:16.696Z,100685.00
2023-04-05T17:38:44.721Z,100687.94
2023-04-05T17:41:12.832Z,100692.44
2023-04-05T17:43:41.216Z,100693.31
2023-04-05T17:46:13.713Z,100696.13
2023-04-05T17:48:42.240Z,100703.22
2023-04-05T17:51:10.682Z,100699.13
2023-04-05T17:53:38.561Z,100702.84
2023-04-05T17:56:07.054Z,100699.50
2023-04-05T17:58:35.159Z,100704.91
2023-04-05T18:01:03.547Z,100708.47
2023-04-05T18:03:33.174Z,100704.41
2023-04-05T18:06:02.284Z,100705.28
2023-04-05T18:08:30.326Z,100711.50
2023-04-05T18:10:58.720Z,100705.34
2023-04-05T18:13:27.747Z,100715.16
2023-04-05T18:15:56.422Z,100715.22
2023-04-05T18:18:24.851Z,100712.66
2023-04-05T18:20:54.797Z,100720.38
2023-04-05T18:23:24.736Z,100720.38
2023-04-05T18:25:54.222Z,100722.22
2023-04-05T18:28:23.697Z,100733.59
2023-04-05T18:30:53.143Z,100729.47
2023-04-05T18:33:22.546Z,100734.78
2023-04-05T18:35:51.952Z,100731.50
2023-04-05T18:38:21.700Z,100735.84
2023-04-05T18:40:50.361Z,100741.19
2023-04-05T18:43:18.350Z,100743.03
2023-04-05T18:45:46.267Z,100741.28
2023-04-05T18:48:15.390Z,100749.88
2023-04-05T18:50:43.623Z,100744.63
2023-04-05T18:53:12.128Z,100744.72
2023-04-05T18:55:42.263Z,100752.44
2023-04-05T18:58:10.188Z,100753.38
2023-04-05T19:00:38.392Z,100755.19
2023-04-05T19:03:07.151Z,100756.84
2023-04-05T19:05:36.933Z,100759.66
2023-04-05T19:08:05.094Z,100755.44
2023-04-05T19:10:33.811Z,100758.00
2023-04-05T19:13:03.734Z,100761.50
2023-04-05T19:15:32.016Z,100753.78
2023-04-05T19:18:01.261Z,100758.09
2023-04-05T19:20:29.316Z,100764.19
2023-04-05T19:22:57.495Z,100761.63
2023-04-05T19:25:26.584Z,100754.81
2023-04-05T19:27:56.976Z,100760.97
2023-04-05T19:30:26.531Z,100758.31
2023-04-05T19:32:56.740Z,100761.75
2023-04-05T19:35:25.048Z,100761.75
2023-04-05T19:37:53.951Z,100756.66
2023-04-05T19:40:23.526Z,100757.63
2023-04-05T19:42:52.409Z,100748.13
2023-04-05T19:45:27.365Z,100762.06
2023-04-05T19:47:57.086Z,100760.56
2023-04-05T19:51:00.370Z,100764.06
2023-04-05T19:53:40.089Z,100770.09
2023-04-05T19:56:12.100Z,100764.97
2023-04-05T19:58:40.393Z,100766.06
2023-04-05T20:01:13.110Z,100772.41
2023-04-05T20:03:42.454Z,100767.38
2023-04-05T20:06:13.681Z,100770.06
2023-04-05T20:08:44.422Z,100769.03
2023-04-05T20:11:14.508Z,100768.13
2023-04-05T20:13:44.985Z,100769.75
2023-04-05T20:16:16.819Z,100765.47
2023-04-05T20:18:49.913Z,100767.19
2023-04-05T20:21:19.192Z,100769.78
2023-04-05T20:23:49.926Z,100779.41
2023-04-05T20:26:18.961Z,100777.63
2023-04-05T20:28:54.673Z,100781.00
2023-04-05T20:31:26.370Z,100780.28
2023-04-05T20:33:56.202Z,100776.09
2023-04-05T20:36:28.313Z,100774.59
2023-04-05T20:38:56.360Z,100775.47
2023-04-05T20:41:24.751Z,100771.16
2023-04-05T20:43:54.234Z,100777.97
2023-04-05T20:46:22.448Z,100774.44
2023-04-05T20:48:53.914Z,100770.06
2023-04-05T20:51:22.390Z,100774.38
2023-04-05T20:53:51.330Z,100766.69
2023-04-05T20:56:19.672Z,100776.59
2023-04-05T20:58:47.847Z,100777.09
2023-04-05T21:01:16.417Z,100775.31
2023-04-05T21:03:44.445Z,100782.25
2023-04-05T21:06:14.311Z,100773.66
2023-04-05T21:08:43.816Z,100777.75
2023-04-05T21:11:12.443Z,100770.75
2023-04-05T21:13:41.352Z,100774.66
2023-04-05T21:16:09.632Z,100782.66
2023-04-05T21:18:42.848Z,100777.59
2023-04-05T21:21:10.976Z,100771.59
2023-04-05T21:23:40.322Z,100777.66
2023-04-05T21:26:08.791Z,100781.97
2023-04-05T21:28:37.101Z,100780.25
2023-04-05T21:31:05.085Z,100787.03
2023-04-05T21:33:33.211Z,100785.44
2023-04-05T21:36:02.111Z,100789.78
2023-04-05T21:38:30.814Z,100793.16
2023-04-05T21:41:00.644Z,100792.41
2023-04-05T21:43:28.901Z,100787.19
2023-04-05T21:45:57.502Z,100790.56
2023-04-05T21:48:27.837Z,100783.75
2023-04-05T21:50:55.950Z,100784.56
2023-04-05T21:53:25.595Z,100787.97
2023-04-05T21:55:54.630Z,100793.94
2023-04-05T21:58:26.728Z,100785.34
2023-04-05T22:00:54.770Z,100781.94
2023-04-05T22:03:23.020Z,100786.19
2023-04-05T22:05:50.953Z,100775.94
2023-04-05T22:08:18.871Z,100778.53
2023-04-05T22:10:46.796Z,100782.81
2023-04-05T22:13:14.806Z,100781.09
2023-04-05T22:15:44.911Z,100785.53
2023-04-05T22:18:13.321Z,100779.47
2023-04-05T22:20:41.217Z,100781.22
2023-04-05T22:23:09.121Z,100789.97
2023-04-05T22:25:37.791Z,100789.19
2023-04-05T22:28:06.266Z,100794.28
2023-04-05T22:30:43.789Z,100786.53
2023-04-05T22:33:13.959Z,100781.34
2023-04-05T22:35:42.376Z,100778.84
2023-04-05T22:38:10.668Z,100781.47
2023-04-05T22:40:38.660Z,100781.53
2023-04-05T22:43:06.945Z,100772.94
2023-04-05T22:45:35.242Z,100777.22
2023-04-05T22:48:03.298Z,100776.38
2023-04-05T22:50:32.836Z,100772.19
2023-04-05T22:53:01.202Z,100773.19
2023-04-05T22:55:29.265Z,100774.03
2023-04-05T22:57:57.217Z,100774.16
2023-04-05T23:00:25.477Z,100775.19
2023-04-05T23:02:53.339Z,100780.34
2023-04-05T23:05:21.631Z,100782.13
2023-04-05T23:07:51.118Z,100777.75
2023-04-05T23:10:19.469Z,100780.28
2023-04-05T23:12:48.962Z,100779.47
2023-04-05T23:15:16.918Z,100782.91
2023-04-05T23:17:44.895Z,100783.75
2023-04-05T23:20:12.949Z,100781.22
2023-04-05T23:22:41.038Z,100785.41
2023-04-05T23:25:11.157Z,100780.28
2023-04-05T23:27:39.257Z,100777.66
2023-04-05T23:30:08.656Z,100769.06
2023-04-05T23:32:37.200Z,100772.47
2023-04-05T23:35:05.983Z,100781.88
2023-04-05T23:37:33.974Z,100780.97
2023-04-05T23:40:04.771Z,100779.38
2023-04-05T23:42:34.871Z,100780.19
2023-04-05T23:45:09.012Z,100782.75
2023-04-05T23:47:38.500Z,100785.34
2023-04-05T23:50:08.227Z,100774.19
2023-04-05T23:52:36.433Z,100776.75
2023-04-05T23:55:04.996Z,100775.88
2023-04-05T23:57:38.066Z,100783.56
